Time;durP1;ratioP1;P1;durP2;ratioP2;P2;SDS_P1;SDS_P2;PMS_P1;PMS_P2;Temp;Humidity;BMP_temperature;BMP_pressure;BME280_temperature;BME280_humidity;BME280_pressure;Samples;Min_cycle;Max_cycle;Signal;HPM_P1;HPM_P2
2022/11/29 00:01:20;;;;;;;;;;;;;;;;;;5057858;28;19920;-89
2022/11/29 00:03:46;;;;;;;;;;;;;;;;;;5041231;28;19927;-89
2022/11/29 00:06:12;;;;;;;;;;;;;;;;;;5040823;28;19924;-90
2022/11/29 00:08:38;;;;;;;;;;;;;;;;;;5057673;28;19920;-89
2022/11/29 00:11:04;;;;;;;;;;;;;;;;;;5041151;28;19920;-89
2022/11/29 00:13:30;;;;;;;;;;;;;;;;;;5057546;28;19928;-89
2022/11/29 00:15:56;;;;;;;;;;;;;;;;;;5057513;28;20346;-89
2022/11/29 00:18:21;;;;;;;;;;;;;;;;;;5057646;28;19942;-89
2022/11/29 00:20:47;;;;;;;;;;;;;;;;;;5040650;28;19924;-89
2022/11/29 00:23:13;;;;;;;;;;;;;;;;;;5057936;28;20010;-89
2022/11/29 00:25:39;;;;;;;;;;;;;;;;;;5057353;28;20371;-89
2022/11/29 00:28:05;;;;;;;;;;;;;;;;;;5040593;28;20023;-89
2022/11/29 00:30:31;;;;;;;;;;;;;;;;;;5040503;28;20011;-89
2022/11/29 00:32:57;;;;;;;;;;;;;;;;;;5056955;28;19972;-89
2022/11/29 00:35:23;;;;;;;;;;;;;;;;;;5057542;28;20015;-89
2022/11/29 00:37:49;;;;;;;;;;;;;;;;;;5040612;28;19921;-90
2022/11/29 00:40:14;;;;;;;;;;;;;;;;;;5056979;28;20016;-90
2022/11/29 00:42:40;;;;;;;;;;;;;;;;;;5057295;28;20109;-89
2022/11/29 00:45:06;;;;;;;;;;;;;;;;;;5056684;28;20388;-90
2022/11/29 00:47:32;;;;;;;;;;;;;;;;;;5057322;28;19927;-90
2022/11/29 00:49:58;;;;;;;;;;;;;;;;;;5040026;28;20421;-90
2022/11/29 00:52:24;;;;;;;;;;;;;;;;;;5040254;28;19920;-90
2022/11/29 00:54:50;;;;;;;;;;;;;;;;;;5040009;28;19920;-89
2022/11/29 00:57:16;;;;;;;;;;;;;;;;;;5040111;28;19920;-89
2022/11/29 00:59:42;;;;;;;;;;;;;;;;;;5056806;28;20350;-89
2022/11/29 01:02:08;;;;;;;;;;;;;;;;;;5039760;28;19943;-90
2022/11/29 01:04:33;;;;;;;;;;;;;;;;;;5039795;28;19963;-90
2022/11/29 01:06:59;;;;;;;;;;;;;;;;;;5056850;28;20019;-89
2022/11/29 01:09:25;;;;;;;;;;;;;;;;;;5056865;28;20435;-89
2022/11/29 01:11:51;;;;;;;;;;;;;;;;;;5039858;28;19927;-90
2022/11/29 01:14:17;;;;;;;;;;;;;;;;;;5056343;28;19974;-90
2022/11/29 01:16:43;;;;;;;;;;;;;;;;;;5039644;28;19950;-90
2022/11/29 01:19:09;;;;;;;;;;;;;;;;;;5039782;28;19921;-90
2022/11/29 01:21:35;;;;;;;;;;;;;;;;;;5056124;28;20379;-90
2022/11/29 01:24:01;;;;;;;;;;;;;;;;;;5056473;28;19942;-90
2022/11/29 01:26:27;;;;;;;;;;;;;;;;;;5056159;28;20445;-90
2022/11/29 01:28:53;;;;;;;;;;;;;;;;;;5039438;28;19931;-90
2022/11/29 01:31:19;;;;;;;;;;;;;;;;;;5055919;28;20011;-90
2022/11/29 01:33:45;;;;;;;;;;;;;;;;;;5055874;28;19920;-90
2022/11/29 01:36:11;;;;;;;;;;;;;;;;;;5039234;28;19927;-90
2022/11/29 01:38:37;;;;;;;;;;;;;;;;;;5039280;28;19973;-90
2022/11/29 01:41:03;;;;;;;;;;;;;;;;;;5039423;28;20019;-90
2022/11/29 01:43:29;;;;;;;;;;;;;;;;;;5055671;28;20033;-91
2022/11/29 01:45:54;;;;;;;;;;;;;;;;;;5054573;28;20017;-91
2022/11/29 01:48:20;;;;;;;;;;;;;;;;;;5055679;28;19927;-90
2022/11/29 01:50:46;;;;;;;;;;;;;;;;;;5038927;28;19959;-90
2022/11/29 01:53:12;;;;;;;;;;;;;;;;;;5055578;28;19920;-90
2022/11/29 01:55:38;;;;;;;;;;;;;;;;;;5055614;28;19920;-90
2022/11/29 01:58:04;;;;;;;;;;;;;;;;;;5055533;28;19970;-91
2022/11/29 02:00:30;;;;;;;;;;;;;;;;;;5038912;28;19920;-90
2022/11/29 02:02:56;;;;;;;;;;;;;;;;;;5038719;28;19920;-90
2022/11/29 02:05:22;;;;;;;;;;;;;;;;;;5055289;28;19975;-90
2022/11/29 02:07:48;;;;;;;;;;;;;;;;;;5055283;28;19920;-90
2022/11/29 02:10:14;;;;;;;;;;;;;;;;;;5038638;28;19963;-90
2022/11/29 02:12:40;;;;;;;;;;;;;;;;;;5038631;28;20014;-90
2022/11/29 02:15:06;;;;;;;;;;;;;;;;;;5038479;28;19968;-90
2022/11/29 02:17:32;;;;;;;;;;;;;;;;;;5038748;28;19920;-90
2022/11/29 02:19:58;;;;;;;;;;;;;;;;;;5038552;28;20367;-90
2022/11/29 02:22:24;;;;;;;;;;;;;;;;;;5054996;28;19920;-90
2022/11/29 02:24:50;;;;;;;;;;;;;;;;;;5038337;28;19928;-90
2022/11/29 02:27:16;;;;;;;;;;;;;;;;;;5038343;28;19920;-90
2022/11/29 02:29:42;;;;;;;;;;;;;;;;;;5038234;28;20287;-90
2022/11/29 02:32:08;;;;;;;;;;;;;;;;;;5038069;28;19921;-91
2022/11/29 02:34:34;;;;;;;;;;;;;;;;;;5055137;28;19928;-90
2022/11/29 02:37:00;;;;;;;;;;;;;;;;;;5038283;28;19931;-90
2022/11/29 02:39:25;;;;;;;;;;;;;;;;;;5054928;28;20015;-90
2022/11/29 02:41:51;;;;;;;;;;;;;;;;;;5038397;28;20007;-90
2022/11/29 02:44:17;;;;;;;;;;;;;;;;;;5037921;28;20443;-91
2022/11/29 02:46:43;;;;;;;;;;;;;;;;;;5038093;28;20425;-90
2022/11/29 02:49:09;;;;;;;;;;;;;;;;;;5054686;28;19921;-90
2022/11/29 02:51:35;;;;;;;;;;;;;;;;;;5054715;28;19920;-90
2022/11/29 02:54:01;;;;;;;;;;;;;;;;;;5055143;28;19921;-90
2022/11/29 02:56:27;;;;;;;;;;;;;;;;;;5037987;28;19921;-90
2022/11/29 02:58:53;;;;;;;;;;;;;;;;;;5037999;28;19924;-90
2022/11/29 03:01:19;;;;;;;;;;;;;;;;;;5037723;28;19920;-90
2022/11/29 03:03:44;;;;;;;;;;;;;;;;;;5055105;28;19921;-90
2022/11/29 03:06:10;;;;;;;;;;;;;;;;;;5037750;28;19924;-90
2022/11/29 03:08:38;;;;;;;;;;;;;;;;;;5037733;28;21431;-90
2022/11/29 03:11:04;;;;;;;;;;;;;;;;;;5037909;28;20010;-90
2022/11/29 03:13:30;;;;;;;;;;;;;;;;;;5037664;28;19967;-90
2022/11/29 03:15:56;;;;;;;;;;;;;;;;;;5037731;28;20370;-90
2022/11/29 03:18:22;;;;;;;;;;;;;;;;;;5054449;28;20012;-90
2022/11/29 03:20:48;;;;;;;;;;;;;;;;;;5037450;28;19964;-90
2022/11/29 03:23:15;;;;;;;;;;;;;;;;;;5054195;28;19974;-90
2022/11/29 03:25:41;;;;;;;;;;;;;;;;;;5037432;28;20322;-91
2022/11/29 03:28:07;;;;;;;;;;;;;;;;;;5037486;28;19920;-90
2022/11/29 03:30:33;;;;;;;;;;;;;;;;;;5037709;28;19924;-91
2022/11/29 03:32:59;;;;;;;;;;;;;;;;;;5054336;28;19925;-90
2022/11/29 03:35:25;;;;;;;;;;;;;;;;;;5054171;28;20301;-90
2022/11/29 03:37:51;;;;;;;;;;;;;;;;;;5054279;28;19921;-90
2022/11/29 03:40:17;;;;;;;;;;;;;;;;;;5037543;28;19927;-90
2022/11/29 03:42:42;;;;;;;;;;;;;;;;;;5054464;28;20310;-90
2022/11/29 03:45:08;;;;;;;;;;;;;;;;;;5037209;28;19931;-90
2022/11/29 03:47:34;;;;;;;;;;;;;;;;;;5038006;28;19950;-90
2022/11/29 03:50:00;;;;;;;;;;;;;;;;;;5054325;28;20371;-90
2022/11/29 03:52:26;;;;;;;;;;;;;;;;;;5037310;28;19920;-90
2022/11/29 03:54:52;;;;;;;;;;;;;;;;;;5037281;28;19986;-90
2022/11/29 03:57:18;;;;;;;;;;;;;;;;;;5053935;28;19921;-90
2022/11/29 03:59:44;;;;;;;;;;;;;;;;;;5054472;28;20330;-90
2022/11/29 04:02:10;;;;;;;;;;;;;;;;;;5037558;28;20382;-90
2022/11/29 04:04:36;;;;;;;;;;;;;;;;;;5054394;28;19924;-90
2022/11/29 04:07:02;;;;;;;;;;;;;;;;;;5053808;28;20309;-90
2022/11/29 04:09:28;;;;;;;;;;;;;;;;;;5056702;28;19927;-90
2022/11/29 04:11:53;;;;;;;;;;;;;;;;;;5041060;28;19990;-90
2022/11/29 04:14:19;;;;;;;;;;;;;;;;;;5041035;28;20253;-90
2022/11/29 04:16:45;;;;;;;;;;;;;;;;;;5057680;28;19924;-90
2022/11/29 04:19:11;;;;;;;;;;;;;;;;;;5040831;28;19927;-90
2022/11/29 04:21:37;;;;;;;;;;;;;;;;;;5057471;28;19927;-90
2022/11/29 04:24:03;;;;;;;;;;;;;;;;;;5040893;28;19924;-90
2022/11/29 04:26:29;;;;;;;;;;;;;;;;;;5057174;28;20295;-90
2022/11/29 04:28:55;;;;;;;;;;;;;;;;;;5040917;28;19935;-90
2022/11/29 04:31:21;;;;;;;;;;;;;;;;;;5057418;28;19920;-90
2022/11/29 04:33:47;;;;;;;;;;;;;;;;;;5040702;28;20068;-90
2022/11/29 04:36:12;;;;;;;;;;;;;;;;;;5057148;28;19927;-90
2022/11/29 04:38:38;;;;;;;;;;;;;;;;;;5041063;28;19974;-91
2022/11/29 04:41:04;;;;;;;;;;;;;;;;;;5057353;28;19921;-90
2022/11/29 04:43:30;;;;;;;;;;;;;;;;;;5040584;28;19921;-90
2022/11/29 04:45:56;;;;;;;;;;;;;;;;;;5040435;28;20439;-90
2022/11/29 04:48:22;;;;;;;;;;;;;;;;;;5056908;28;20011;-90
2022/11/29 04:50:48;;;;;;;;;;;;;;;;;;5056800;28;19966;-90
2022/11/29 04:53:14;;;;;;;;;;;;;;;;;;5040322;28;20010;-90
2022/11/29 04:55:40;;;;;;;;;;;;;;;;;;5056884;28;19964;-90
2022/11/29 04:58:06;;;;;;;;;;;;;;;;;;5040398;28;19920;-91
2022/11/29 05:00:31;;;;;;;;;;;;;;;;;;5057027;28;20057;-91
2022/11/29 05:02:57;;;;;;;;;;;;;;;;;;5057017;28;20015;-91
2022/11/29 05:05:23;;;;;;;;;;;;;;;;;;5056558;28;19935;-91
2022/11/29 05:07:49;;;;;;;;;;;;;;;;;;5056551;28;20466;-90
2022/11/29 05:10:15;;;;;;;;;;;;;;;;;;5056355;28;19920;-90
2022/11/29 05:12:41;;;;;;;;;;;;;;;;;;5040263;28;19987;-91
2022/11/29 05:15:07;;;;;;;;;;;;;;;;;;5040114;28;20364;-90
2022/11/29 05:17:33;;;;;;;;;;;;;;;;;;5039997;28;19971;-91
2022/11/29 05:19:59;;;;;;;;;;;;;;;;;;5039529;28;20383;-91
2022/11/29 05:22:26;;;;;;;;;;;;;;;;;;5056197;28;19970;-91
2022/11/29 05:24:52;;;;;;;;;;;;;;;;;;5056141;28;19971;-90
2022/11/29 05:27:18;;;;;;;;;;;;;;;;;;5039610;28;19967;-90
2022/11/29 05:29:44;;;;;;;;;;;;;;;;;;5056172;28;19972;-91
2022/11/29 05:32:10;;;;;;;;;;;;;;;;;;5039432;28;20011;-90
2022/11/29 05:34:36;;;;;;;;;;;;;;;;;;5039567;28;19927;-90
2022/11/29 05:37:02;;;;;;;;;;;;;;;;;;5039433;28;19940;-90
2022/11/29 05:39:28;;;;;;;;;;;;;;;;;;5055908;28;19921;-91
2022/11/29 05:41:54;;;;;;;;;;;;;;;;;;5039196;28;19925;-90
2022/11/29 05:44:20;;;;;;;;;;;;;;;;;;5038990;28;20033;-90
2022/11/29 05:46:46;;;;;;;;;;;;;;;;;;5055687;28;20367;-90
2022/11/29 05:49:11;;;;;;;;;;;;;;;;;;5056097;28;19946;-90
2022/11/29 05:51:37;;;;;;;;;;;;;;;;;;5038945;28;19966;-90
2022/11/29 05:54:03;;;;;;;;;;;;;;;;;;5055544;28;19931;-90
2022/11/29 05:56:29;;;;;;;;;;;;;;;;;;5038961;28;19972;-90
2022/11/29 05:58:55;;;;;;;;;;;;;;;;;;5038870;28;19927;-89
2022/11/29 06:01:21;;;;;;;;;;;;;;;;;;5055560;28;19944;-90
2022/11/29 06:03:47;;;;;;;;;;;;;;;;;;5039317;28;20359;-90
2022/11/29 06:06:13;;;;;;;;;;;;;;;;;;5039017;28;19929;-90
2022/11/29 06:08:39;;;;;;;;;;;;;;;;;;5055365;28;19927;-90
2022/11/29 06:11:05;;;;;;;;;;;;;;;;;;5038726;28;19920;-90
2022/11/29 06:13:31;;;;;;;;;;;;;;;;;;5055462;28;19924;-90
2022/11/29 06:15:57;;;;;;;;;;;;;;;;;;5039107;28;19981;-90
2022/11/29 06:18:23;;;;;;;;;;;;;;;;;;5055554;28;19920;-90
2022/11/29 06:20:49;;;;;;;;;;;;;;;;;;5038432;28;20014;-91
2022/11/29 06:23:14;;;;;;;;;;;;;;;;;;5038750;28;20275;-91
2022/11/29 06:25:42;;;;;;;;;;;;;;;;;;5038587;28;19924;-90
2022/11/29 06:28:07;;;;;;;;;;;;;;;;;;5038538;28;20376;-90
2022/11/29 06:30:33;;;;;;;;;;;;;;;;;;5054577;28;19920;-91
2022/11/29 06:33:00;;;;;;;;;;;;;;;;;;5038383;28;19931;-90
2022/11/29 06:35:26;;;;;;;;;;;;;;;;;;5038420;28;19924;-91
2022/11/29 06:37:52;;;;;;;;;;;;;;;;;;5038153;28;20394;-91
2022/11/29 06:40:17;;;;;;;;;;;;;;;;;;5038300;28;19927;-90
2022/11/29 06:42:43;;;;;;;;;;;;;;;;;;5038313;28;20272;-92
2022/11/29 06:45:09;;;;;;;;;;;;;;;;;;5037944;28;19930;-90
2022/11/29 06:47:36;;;;;;;;;;;;;;;;;;5038147;28;19921;-91
2022/11/29 06:50:01;;;;;;;;;;;;;;;;;;5038361;28;19943;-91
2022/11/29 06:52:27;;;;;;;;;;;;;;;;;;5054819;28;20359;-90
2022/11/29 06:54:53;;;;;;;;;;;;;;;;;;5054898;28;19924;-90
2022/11/29 06:57:19;;;;;;;;;;;;;;;;;;5038303;28;19920;-90
2022/11/29 06:59:46;;;;;;;;;;;;;;;;;;5038075;28;20360;-90
2022/11/29 07:02:12;;;;;;;;;;;;;;;;;;5054594;28;19920;-90
2022/11/29 07:04:38;;;;;;;;;;;;;;;;;;5054449;28;19927;-89
2022/11/29 07:07:04;;;;;;;;;;;;;;;;;;5037778;28;19975;-90
2022/11/29 07:09:30;;;;;;;;;;;;;;;;;;5054437;28;19921;-91
2022/11/29 07:11:55;;;;;;;;;;;;;;;;;;5038009;28;20370;-91
2022/11/29 07:14:21;;;;;;;;;;;;;;;;;;5054722;28;19921;-91
2022/11/29 07:16:47;;;;;;;;;;;;;;;;;;5037833;28;19920;-90
2022/11/29 07:19:13;;;;;;;;;;;;;;;;;;5037646;28;19954;-89
2022/11/29 07:21:39;;;;;;;;;;;;;;;;;;5037624;28;19920;-91
2022/11/29 07:24:05;;;;;;;;;;;;;;;;;;5054253;28;19965;-89
2022/11/29 07:26:31;;;;;;;;;;;;;;;;;;5054284;28;19931;-90
2022/11/29 07:28:57;;;;;;;;;;;;;;;;;;5037834;28;19920;-90
2022/11/29 07:31:23;;;;;;;;;;;;;;;;;;5037741;28;19924;-90
2022/11/29 07:33:49;;;;;;;;;;;;;;;;;;5054649;28;19924;-91
2022/11/29 07:36:15;;;;;;;;;;;;;;;;;;5037934;28;20015;-90
2022/11/29 07:38:41;;;;;;;;;;;;;;;;;;5054276;28;19959;-89
2022/11/29 07:41:07;;;;;;;;;;;;;;;;;;5054148;28;19956;-90
2022/11/29 07:43:33;;;;;;;;;;;;;;;;;;5040827;28;20338;-92
2022/11/29 07:45:58;;;;;;;;;;;;;;;;;;5041618;28;20364;-93
2022/11/29 07:48:25;;;;;;;;;;;;;;;;;;5041326;28;19920;-90
2022/11/29 07:50:51;;;;;;;;;;;;;;;;;;5041630;28;19920;-91
2022/11/29 07:53:17;;;;;;;;;;;;;;;;;;5041691;28;20374;-92
2022/11/29 07:55:43;;;;;;;;;;;;;;;;;;5057981;28;19932;-90
2022/11/29 07:58:09;;;;;;;;;;;;;;;;;;5041236;28;19920;-93
2022/11/29 08:00:35;;;;;;;;;;;;;;;;;;5041173;28;19920;-92
2022/11/29 08:03:01;;;;;;;;;;;;;;;;;;5041574;28;19920;-92
2022/11/29 08:05:27;;;;;;;;;;;;;;;;;;5041409;28;20017;-91
2022/11/29 08:07:54;;;;;;;;;;;;;;;;;;5058111;28;20383;-90
2022/11/29 08:10:20;;;;;;;;;;;;;;;;;;5041597;28;19943;-90
2022/11/29 08:12:46;;;;;;;;;;;;;;;;;;5041306;28;20403;-90
2022/11/29 08:15:12;;;;;;;;;;;;;;;;;;5041139;28;20355;-89
2022/11/29 08:17:38;;;;;;;;;;;;;;;;;;5040908;28;19982;-89
2022/11/29 08:20:04;;;;;;;;;;;;;;;;;;5057433;28;20286;-91
2022/11/29 08:22:31;;;;;;;;;;;;;;;;;;5040642;28;20018;-91
2022/11/29 08:24:58;;;;;;;;;;;;;;;;;;5040910;28;20087;-90
2022/11/29 08:27:24;;;;;;;;;;;;;;;;;;5040907;28;19920;-92
2022/11/29 08:29:50;;;;;;;;;;;;;;;;;;5040602;28;19971;-91
2022/11/29 08:32:16;;;;;;;;;;;;;;;;;;5040875;28;19920;-91
2022/11/29 08:34:42;;;;;;;;;;;;;;;;;;5040826;28;20352;-91
2022/11/29 08:37:09;;;;;;;;;;;;;;;;;;5057206;28;19920;-91
2022/11/29 08:39:36;;;;;;;;;;;;;;;;;;5057250;28;19927;-91
2022/11/29 08:42:02;;;;;;;;;;;;;;;;;;5040604;28;19928;-91
2022/11/29 08:44:28;;;;;;;;;;;;;;;;;;5056819;28;19924;-90
2022/11/29 08:49:59;;;;;;;;;;;;;;;;;;5056858;28;19966;-91
2022/11/29 08:55:09;;;;;;;;;;;;;;;;;;5054480;28;19922;-90
2022/11/29 08:57:35;;;;;;;;;;;;;;;;;;5040019;28;19943;-91
2022/11/29 09:00:01;;;;;;;;;;;;;;;;;;5039991;28;19928;-91
2022/11/29 09:02:27;;;;;;;;;;;;;;;;;;5039962;28;19920;-91
2022/11/29 09:04:53;;;;;;;;;;;;;;;;;;5040602;28;20001;-90
2022/11/29 09:07:19;;;;;;;;;;;;;;;;;;5056607;28;19921;-91
2022/11/29 09:09:45;;;;;;;;;;;;;;;;;;5056510;28;19978;-91
2022/11/29 09:12:11;;;;;;;;;;;;;;;;;;5039989;28;19924;-91
2022/11/29 09:14:36;;;;;;;;;;;;;;;;;;5040205;28;19921;-91
2022/11/29 09:17:02;;;;;;;;;;;;;;;;;;5074563;28;19920;-91
2022/11/29 09:19:28;;;;;;;;;;;;;;;;;;5040172;28;19920;-91
2022/11/29 09:21:55;;;;;;;;;;;;;;;;;;5039712;28;19920;-90
2022/11/29 09:24:21;;;;;;;;;;;;;;;;;;5039581;28;19971;-91
2022/11/29 09:26:50;;;;;;;;;;;;;;;;;;5039536;28;20354;-90
2022/11/29 09:29:16;;;;;;;;;;;;;;;;;;5056218;28;20158;-91
2022/11/29 09:31:43;;;;;;;;;;;;;;;;;;5039843;28;20360;-91
2022/11/29 09:34:09;;;;;;;;;;;;;;;;;;5039787;28;20026;-91
2022/11/29 09:36:35;;;;;;;;;;;;;;;;;;5039698;28;19975;-91
2022/11/29 09:39:01;;;;;;;;;;;;;;;;;;5039538;28;19920;-91
2022/11/29 09:41:27;;;;;;;;;;;;;;;;;;5055829;28;20278;-91
2022/11/29 09:43:53;;;;;;;;;;;;;;;;;;5035862;28;20027;-91
2022/11/29 09:46:19;;;;;;;;;;;;;;;;;;5035796;28;20295;-91
2022/11/29 09:48:45;;;;;;;;;;;;;;;;;;5052426;28;19921;-91
2022/11/29 09:51:11;;;;;;;;;;;;;;;;;;5035680;28;19920;-94
2022/11/29 09:53:37;;;;;;;;;;;;;;;;;;5052905;28;19928;-92
2022/11/29 09:56:03;;;;;;;;;;;;;;;;;;5035666;28;19925;-92
2022/11/29 09:58:29;;;;;;;;;;;;;;;;;;5035951;28;20131;-91
2022/11/29 10:00:55;;;;;;;;;;;;;;;;;;5035724;28;20408;-93
2022/11/29 10:03:22;;;;;;;;;;;;;;;;;;5035779;28;19979;-91
2022/11/29 10:05:49;;;;;;;;;;;;;;;;;;5034916;28;19924;-91
2022/11/29 10:08:15;;;;;;;;;;;;;;;;;;5035337;28;19962;-92
2022/11/29 10:10:42;;;;;;;;;;;;;;;;;;5035473;28;19921;-92
2022/11/29 10:13:08;;;;;;;;;;;;;;;;;;5035447;28;20292;-92
2022/11/29 10:15:33;;;;;;;;;;;;;;;;;;5035507;28;19925;-91
2022/11/29 10:17:59;;;;;;;;;;;;;;;;;;5035376;28;19932;-91
2022/11/29 10:20:25;;;;;;;;;;;;;;;;;;5035369;28;19955;-91
2022/11/29 10:22:53;;;;;;;;;;;;;;;;;;5035139;28;20288;-91
2022/11/29 10:25:19;;;;;;;;;;;;;;;;;;5051631;28;19925;-90
2022/11/29 10:27:45;;;;;;;;;;;;;;;;;;5051597;28;19921;-91
2022/11/29 10:30:11;;;;;;;;;;;;;;;;;;5051697;28;19921;-92
2022/11/29 10:32:36;;;;;;;;;;;;;;;;;;5052166;28;20279;-93
2022/11/29 10:35:02;;;;;;;;;;;;;;;;;;5035215;28;20008;-90
2022/11/29 10:37:31;;;;;;;;;;;;;;;;;;5051446;28;20011;-91
2022/11/29 10:39:57;;;;;;;;;;;;;;;;;;5051816;28;20248;-91
2022/11/29 10:45:08;;;;;;;;;;;;;;;;;;5051193;28;19931;-93
2022/11/29 10:47:34;;;;;;;;;;;;;;;;;;5051472;28;20023;-92
2022/11/29 10:50:01;;;;;;;;;;;;;;;;;;5034633;28;19983;-93
2022/11/29 10:52:27;;;;;;;;;;;;;;;;;;5051841;28;19921;-90
2022/11/29 10:54:53;;;;;;;;;;;;;;;;;;5034516;28;20326;-91
2022/11/29 10:57:19;;;;;;;;;;;;;;;;;;5051202;28;19921;-91
2022/11/29 10:59:45;;;;;;;;;;;;;;;;;;5050851;28;19966;-90
2022/11/29 11:02:10;;;;;;;;;;;;;;;;;;5051275;28;19921;-92
2022/11/29 11:04:37;;;;;;;;;;;;;;;;;;5034671;28;19921;-90
2022/11/29 11:07:03;;;;;;;;;;;;;;;;;;5050868;28;19971;-90
2022/11/29 11:09:29;;;;;;;;;;;;;;;;;;5051095;28;19964;-90
2022/11/29 11:11:55;;;;;;;;;;;;;;;;;;5051257;28;19920;-94
2022/11/29 11:14:21;;;;;;;;;;;;;;;;;;5034751;28;19990;-92
2022/11/29 11:16:47;;;;;;;;;;;;;;;;;;5034513;28;19921;-91
2022/11/29 11:19:13;;;;;;;;;;;;;;;;;;5051169;28;19921;-91
2022/11/29 11:21:39;;;;;;;;;;;;;;;;;;5034563;28;19927;-91
2022/11/29 11:24:06;;;;;;;;;;;;;;;;;;5051599;28;20318;-91
2022/11/29 11:26:32;;;;;;;;;;;;;;;;;;5039103;28;19984;-95
2022/11/29 11:28:58;;;;;;;;;;;;;;;;;;5035328;28;19971;-94
2022/11/29 11:31:24;;;;;;;;;;;;;;;;;;5035205;28;20036;-94
2022/11/29 11:33:53;;;;;;;;;;;;;;;;;;5036993;28;19936;-96
2022/11/29 11:36:19;;;;;;;;;;;;;;;;;;5044216;28;19921;-92
2022/11/29 11:38:45;;;;;;;;;;;;;;;;;;5055836;28;19986;-93
2022/11/29 11:41:11;;;;;;;;;;;;;;;;;;5056920;28;19921;-93
2022/11/29 11:43:37;;;;;;;;;;;;;;;;;;5062072;28;20004;-93
2022/11/29 11:46:03;;;;;;;;;;;;;;;;;;5059406;28;19928;-93
2022/11/29 11:48:29;;;;;;;;;;;;;;;;;;5038342;28;19943;-93
2022/11/29 11:50:56;;;;;;;;;;;;;;;;;;5037687;28;20225;-93
2022/11/29 11:53:22;;;;;;;;;;;;;;;;;;5037678;28;19920;-93
2022/11/29 11:55:48;;;;;;;;;;;;;;;;;;5037606;28;19920;-94
2022/11/29 11:58:17;;;;;;;;;;;;;;;;;;5038019;28;20360;-90
2022/11/29 12:00:43;;;;;;;;;;;;;;;;;;5036977;28;19993;-90
2022/11/29 12:03:08;;;;;;;;;;;;;;;;;;5054035;28;20011;-90
2022/11/29 12:05:34;;;;;;;;;;;;;;;;;;5053687;28;20016;-91
2022/11/29 12:08:00;;;;;;;;;;;;;;;;;;5037269;28;19920;-90
2022/11/29 12:10:26;;;;;;;;;;;;;;;;;;5036979;28;19921;-90
2022/11/29 12:12:52;;;;;;;;;;;;;;;;;;5053757;28;19928;-91
2022/11/29 12:15:18;;;;;;;;;;;;;;;;;;5036970;28;20271;-90
2022/11/29 12:17:44;;;;;;;;;;;;;;;;;;5037071;28;19924;-91
2022/11/29 12:20:10;;;;;;;;;;;;;;;;;;5036955;28;20346;-90
2022/11/29 12:22:36;;;;;;;;;;;;;;;;;;5036865;28;19920;-91
2022/11/29 12:25:02;;;;;;;;;;;;;;;;;;5053885;28;20015;-91
2022/11/29 12:27:27;;;;;;;;;;;;;;;;;;5037056;28;20439;-91
2022/11/29 12:29:53;;;;;;;;;;;;;;;;;;5038622;28;19925;-90
2022/11/29 12:32:19;;;;;;;;;;;;;;;;;;5040456;28;20017;-91
2022/11/29 12:34:45;;;;;;;;;;;;;;;;;;5040987;28;19920;-94
2022/11/29 12:37:14;;;;;;;;;;;;;;;;;;5041473;28;19924;-92
2022/11/29 12:39:41;;;;;;;;;;;;;;;;;;5057493;28;20436;-90
2022/11/29 12:42:07;;;;;;;;;;;;;;;;;;5057456;28;19920;-94
2022/11/29 12:44:33;;;;;;;;;;;;;;;;;;5058181;28;19928;-92
2022/11/29 12:46:58;;;;;;;;;;;;;;;;;;5040400;28;19931;-95
2022/11/29 12:49:24;;;;;;;;;;;;;;;;;;5040537;28;19999;-95
2022/11/29 12:51:50;;;;;;;;;;;;;;;;;;5040467;28;19921;-94
2022/11/29 12:54:16;;;;;;;;;;;;;;;;;;5040396;28;19949;-94
2022/11/29 12:56:42;;;;;;;;;;;;;;;;;;5040315;28;20326;-93
2022/11/29 12:59:08;;;;;;;;;;;;;;;;;;5057145;28;19924;-92
2022/11/29 13:01:34;;;;;;;;;;;;;;;;;;5040693;28;20126;-92
2022/11/29 13:04:00;;;;;;;;;;;;;;;;;;5057509;28;20404;-95
2022/11/29 13:06:27;;;;;;;;;;;;;;;;;;5040191;28;19973;-92
2022/11/29 13:08:53;;;;;;;;;;;;;;;;;;5056745;28;19924;-89
2022/11/29 13:11:19;;;;;;;;;;;;;;;;;;5039992;28;19989;-89
2022/11/29 13:13:45;;;;;;;;;;;;;;;;;;5039617;28;19946;-90
2022/11/29 13:16:11;;;;;;;;;;;;;;;;;;5039424;28;19928;-89
2022/11/29 13:18:36;;;;;;;;;;;;;;;;;;5056638;28;20007;-90
2022/11/29 13:21:02;;;;;;;;;;;;;;;;;;5056210;28;20011;-90
2022/11/29 13:23:28;;;;;;;;;;;;;;;;;;5056287;28;20006;-90
2022/11/29 13:25:54;;;;;;;;;;;;;;;;;;5039623;28;20368;-91
2022/11/29 13:28:20;;;;;;;;;;;;;;;;;;5055928;28;20015;-90
2022/11/29 13:30:46;;;;;;;;;;;;;;;;;;5039454;28;19959;-92
2022/11/29 13:33:12;;;;;;;;;;;;;;;;;;5056061;28;19927;-90
2022/11/29 13:35:38;;;;;;;;;;;;;;;;;;5039760;28;19920;-92
2022/11/29 13:38:04;;;;;;;;;;;;;;;;;;5039699;28;20034;-89
2022/11/29 13:40:30;;;;;;;;;;;;;;;;;;5055830;28;19921;-89
2022/11/29 13:42:56;;;;;;;;;;;;;;;;;;5038959;28;19924;-89
2022/11/29 13:45:22;;;;;;;;;;;;;;;;;;5052364;28;20334;-92
2022/11/29 13:47:48;;;;;;;;;;;;;;;;;;5036003;28;19921;-91
2022/11/29 13:50:14;;;;;;;;;;;;;;;;;;5022570;28;20094;-91
2022/11/29 13:52:40;;;;;;;;;;;;;;;;;;5032406;28;19928;-91
2022/11/29 13:55:05;;;;;;;;;;;;;;;;;;5035642;28;19921;-90
2022/11/29 13:57:31;;;;;;;;;;;;;;;;;;5035575;28;19928;-90
2022/11/29 13:59:57;;;;;;;;;;;;;;;;;;5052009;28;19927;-90
2022/11/29 14:02:23;;;;;;;;;;;;;;;;;;5051986;28;19931;-90
2022/11/29 14:04:49;;;;;;;;;;;;;;;;;;5051919;28;20338;-90
2022/11/29 14:07:17;;;;;;;;;;;;;;;;;;5035280;28;19925;-89
2022/11/29 14:09:43;;;;;;;;;;;;;;;;;;5035291;28;19936;-90
2022/11/29 14:12:09;;;;;;;;;;;;;;;;;;5035303;28;19921;-90
2022/11/29 14:14:35;;;;;;;;;;;;;;;;;;5035075;28;19921;-91
2022/11/29 14:17:01;;;;;;;;;;;;;;;;;;5035534;28;19921;-90
2022/11/29 14:19:26;;;;;;;;;;;;;;;;;;5051744;28;20384;-90
2022/11/29 14:21:52;;;;;;;;;;;;;;;;;;5034696;28;19921;-90
2022/11/29 14:24:18;;;;;;;;;;;;;;;;;;5035354;28;19944;-92
2022/11/29 14:26:44;;;;;;;;;;;;;;;;;;5034957;28;19928;-92
2022/11/29 14:29:10;;;;;;;;;;;;;;;;;;5051870;28;19920;-94
2022/11/29 14:31:36;;;;;;;;;;;;;;;;;;5038005;28;20028;-93
2022/11/29 14:34:02;;;;;;;;;;;;;;;;;;5035031;28;19975;-90
2022/11/29 14:36:28;;;;;;;;;;;;;;;;;;5035049;28;19940;-90
2022/11/29 14:38:54;;;;;;;;;;;;;;;;;;5034811;28;20300;-89
2022/11/29 14:41:21;;;;;;;;;;;;;;;;;;5034646;28;20290;-89
2022/11/29 14:43:47;;;;;;;;;;;;;;;;;;5051327;28;20305;-89
2022/11/29 14:46:13;;;;;;;;;;;;;;;;;;5034434;28;19941;-90
2022/11/29 14:48:39;;;;;;;;;;;;;;;;;;5034712;28;19920;-89
2022/11/29 14:51:05;;;;;;;;;;;;;;;;;;5034527;28;20095;-89
2022/11/29 14:53:31;;;;;;;;;;;;;;;;;;5050883;28;20283;-89
2022/11/29 14:55:57;;;;;;;;;;;;;;;;;;5051508;28;19928;-89
2022/11/29 14:58:22;;;;;;;;;;;;;;;;;;5051050;28;19921;-89
2022/11/29 15:00:48;;;;;;;;;;;;;;;;;;5051180;28;19921;-88
2022/11/29 15:03:14;;;;;;;;;;;;;;;;;;5051397;28;19920;-89
2022/11/29 15:05:40;;;;;;;;;;;;;;;;;;5051392;28;20390;-89
2022/11/29 15:08:07;;;;;;;;;;;;;;;;;;5051226;28;20429;-89
2022/11/29 15:10:33;;;;;;;;;;;;;;;;;;5050901;28;19928;-89
2022/11/29 15:12:59;;;;;;;;;;;;;;;;;;5035378;28;19920;-89
2022/11/29 15:15:25;;;;;;;;;;;;;;;;;;5034880;28;19921;-88
2022/11/29 15:17:52;;;;;;;;;;;;;;;;;;5052263;28;20399;-88
2022/11/29 15:20:17;;;;;;;;;;;;;;;;;;5051392;28;19960;-88
2022/11/29 15:22:43;;;;;;;;;;;;;;;;;;5034248;28;19974;-89
2022/11/29 15:25:09;;;;;;;;;;;;;;;;;;5052099;28;19921;-89
2022/11/29 15:27:35;;;;;;;;;;;;;;;;;;5035310;28;19920;-90
2022/11/29 15:30:01;;;;;;;;;;;;;;;;;;5051631;28;19927;-91
2022/11/29 15:32:35;;;;;;;;;;;;;;;;;;5051815;28;19920;-91
2022/11/29 15:35:01;;;;;;;;;;;;;;;;;;5034929;28;19921;-92
2022/11/29 15:37:27;;;;;;;;;;;;;;;;;;5051940;28;19928;-92
2022/11/29 15:39:53;;;;;;;;;;;;;;;;;;5035555;28;20004;-92
2022/11/29 15:42:19;;;;;;;;;;;;;;;;;;5034359;28;19921;-92
2022/11/29 15:44:45;;;;;;;;;;;;;;;;;;5034008;28;19925;-91
2022/11/29 15:47:11;;;;;;;;;;;;;;;;;;5034142;28;19932;-92
2022/11/29 15:49:37;;;;;;;;;;;;;;;;;;5034304;28;20291;-90
2022/11/29 15:52:04;;;;;;;;;;;;;;;;;;5050798;28;19924;-89
2022/11/29 15:54:30;;;;;;;;;;;;;;;;;;5029201;28;19921;-88
2022/11/29 15:56:56;;;;;;;;;;;;;;;;;;5014286;28;19975;-89
2022/11/29 15:59:21;;;;;;;;;;;;;;;;;;5030482;28;19991;-88
2022/11/29 16:01:47;;;;;;;;;;;;;;;;;;5030734;28;19928;-89
2022/11/29 16:04:13;;;;;;;;;;;;;;;;;;5031649;28;19971;-89
2022/11/29 16:06:39;;;;;;;;;;;;;;;;;;5034133;28;19972;-89
2022/11/29 16:09:05;;;;;;;;;;;;;;;;;;5017683;28;20288;-90
2022/11/29 16:11:31;;;;;;;;;;;;;;;;;;5034085;28;19960;-89
2022/11/29 16:13:57;;;;;;;;;;;;;;;;;;5017577;28;19953;-90
2022/11/29 16:16:25;;;;;;;;;;;;;;;;;;5017534;28;19929;-89
2022/11/29 16:18:51;;;;;;;;;;;;;;;;;;5017458;28;19921;-88
2022/11/29 16:21:17;;;;;;;;;;;;;;;;;;5017242;28;19928;-89
2022/11/29 16:23:45;;;;;;;;;;;;;;;;;;5034314;28;19925;-89
2022/11/29 16:26:11;;;;;;;;;;;;;;;;;;5017657;28;19925;-91
2022/11/29 16:28:37;;;;;;;;;;;;;;;;;;5033949;28;20238;-90
2022/11/29 16:31:03;;;;;;;;;;;;;;;;;;5017342;28;20356;-90
2022/11/29 16:33:29;;;;;;;;;;;;;;;;;;5018522;28;19921;-91
2022/11/29 16:35:55;;;;;;;;;;;;;;;;;;5018464;28;19927;-89
2022/11/29 16:38:21;;;;;;;;;;;;;;;;;;5017210;28;19928;-89
2022/11/29 16:40:47;;;;;;;;;;;;;;;;;;5018317;28;19968;-88
2022/11/29 16:43:13;;;;;;;;;;;;;;;;;;5017428;28;19929;-90
2022/11/29 16:45:40;;;;;;;;;;;;;;;;;;5053191;28;19936;-88